Time;durP1;ratioP1;P1;durP2;ratioP2;P2;SDS_P1;SDS_P2;PMS_P1;PMS_P2;Temp;Humidity;BMP_temperature;BMP_pressure;BME280_temperature;BME280_humidity;BME280_pressure;Samples;Min_cycle;Max_cycle;Signal;HPM_P1;HPM_P2
2021/09/07 00:00:06;;;;;;;13.00;7.50;;;17.80;99.90;;;;;;5014571;28;20581;-79
2021/09/07 00:02:32;;;;;;;11.20;7.63;;;17.90;99.90;;;;;;5014935;28;20170;-79
2021/09/07 00:04:57;;;;;;;11.67;8.00;;;17.90;99.90;;;;;;5015934;28;20424;-80
2021/09/07 00:07:26;;;;;;;11.70;8.90;;;17.90;99.90;;;;;;5015757;28;20192;-80
2021/09/07 00:09:54;;;;;;;16.23;9.00;;;17.90;99.90;;;;;;5016233;28;20174;-80
2021/09/07 00:12:20;;;;;;;14.40;8.20;;;18.00;99.90;;;;;;5015978;28;20416;-80
2021/09/07 00:14:46;;;;;;;11.80;7.07;;;18.00;99.90;;;;;;5017659;28;20486;-80
2021/09/07 00:17:12;;;;;;;12.37;8.20;;;18.00;99.90;;;;;;5017256;28;20555;-80
2021/09/07 00:19:41;;;;;;;12.63;8.70;;;18.00;99.90;;;;;;5016410;28;20174;-80
2021/09/07 00:22:07;;;;;;;10.30;7.10;;;18.00;99.90;;;;;;5017117;28;20166;-79
2021/09/07 00:24:32;;;;;;;11.33;7.97;;;17.90;99.90;;;;;;5015697;28;20494;-79
2021/09/07 00:26:58;;;;;;;10.50;7.57;;;17.90;99.90;;;;;;5015807;28;20436;-80
2021/09/07 00:29:24;;;;;;;14.20;8.10;;;17.90;99.90;;;;;;5016647;28;20220;-80
2021/09/07 00:31:50;;;;;;;12.90;7.80;;;17.80;99.90;;;;;;5015466;28;20185;-79
2021/09/07 00:34:16;;;;;;;11.70;7.90;;;17.80;99.90;;;;;;5014802;28;20413;-80
2021/09/07 00:36:41;;;;;;;16.30;8.03;;;17.90;99.90;;;;;;5015935;28;20198;-80
2021/09/07 00:39:09;;;;;;;11.30;8.17;;;17.90;99.90;;;;;;5016031;28;20254;-79
2021/09/07 00:41:38;;;;;;;10.77;7.87;;;17.90;99.90;;;;;;5016018;28;20169;-79
2021/09/07 00:44:17;;;;;;;9.20;6.47;;;17.90;99.90;;;;;;5015412;28;20405;-79
2021/09/07 00:46:50;;;;;;;9.90;7.13;;;17.90;99.90;;;;;;5015058;28;20447;-80
2021/09/07 00:49:16;;;;;;;12.03;7.30;;;17.90;99.90;;;;;;5016033;28;20401;-79
2021/09/07 00:51:46;;;;;;;13.80;7.83;;;17.90;99.90;;;;;;5015360;28;20425;-79
2021/09/07 00:54:12;;;;;;;12.20;7.73;;;17.90;99.90;;;;;;5014471;28;20422;-78
2021/09/07 00:56:40;;;;;;;13.73;7.57;;;17.90;99.90;;;;;;5015209;28;20484;-79
2021/09/07 00:59:07;;;;;;;14.20;8.07;;;17.90;99.90;;;;;;5013670;28;20413;-78
2021/09/07 01:01:33;;;;;;;15.23;8.17;;;17.90;99.90;;;;;;5012992;28;20405;-79
2021/09/07 01:03:59;;;;;;;14.10;7.93;;;17.90;99.90;;;;;;5013654;28;20779;-78
2021/09/07 01:06:24;;;;;;;14.10;7.50;;;17.80;99.90;;;;;;5012246;28;20190;-79
2021/09/07 01:08:50;;;;;;;16.00;8.70;;;17.90;99.90;;;;;;5012888;28;20188;-79
2021/09/07 01:11:18;;;;;;;14.10;7.30;;;17.90;99.90;;;;;;5014427;28;20250;-79
2021/09/07 01:13:47;;;;;;;12.80;8.43;;;17.90;99.90;;;;;;5014507;28;20174;-79
2021/09/07 01:16:13;;;;;;;9.90;7.00;;;17.90;99.90;;;;;;4996445;28;20457;-80
2021/09/07 01:18:40;;;;;;;9.70;6.30;;;17.90;99.90;;;;;;5013746;28;20405;-79
2021/09/07 01:21:10;;;;;;;11.37;7.43;;;17.90;99.90;;;;;;5012672;28;20415;-79
2021/09/07 01:23:37;;;;;;;12.00;7.07;;;17.90;99.90;;;;;;5013517;28;20483;-80
2021/09/07 01:26:03;;;;;;;10.40;7.30;;;17.90;99.90;;;;;;5013734;28;20559;-80
2021/09/07 01:28:29;;;;;;;14.20;7.37;;;17.80;99.90;;;;;;5013981;28;20942;-81
2021/09/07 01:30:55;;;;;;;11.10;7.30;;;17.80;99.90;;;;;;5013993;28;20490;-80
2021/09/07 01:33:21;;;;;;;10.50;6.47;;;17.80;99.90;;;;;;5015588;28;20409;-80
2021/09/07 01:35:47;;;;;;;11.60;7.10;;;17.70;99.90;;;;;;5014361;28;20205;-80
2021/09/07 01:38:12;;;;;;;12.13;6.83;;;17.70;99.90;;;;;;5013277;28;20416;-80
2021/09/07 01:40:41;;;;;;;15.90;7.97;;;17.70;99.90;;;;;;5014528;28;20183;-80
2021/09/07 01:43:13;;;;;;;10.53;7.47;;;17.60;99.90;;;;;;5013745;28;20234;-80
2021/09/07 01:45:39;;;;;;;14.07;7.97;;;17.50;99.90;;;;;;5015087;28;20777;-80
2021/09/07 01:48:04;;;;;;;10.80;7.67;;;17.40;99.90;;;;;;5014145;28;20411;-79
2021/09/07 01:50:30;;;;;;;12.57;7.43;;;17.40;99.90;;;;;;5014515;28;20579;-80
2021/09/07 01:52:59;;;;;;;11.43;7.60;;;17.40;99.90;;;;;;5015253;28;20250;-79
2021/09/07 01:55:24;;;;;;;10.23;7.63;;;17.40;99.90;;;;;;5011296;28;20192;-79
2021/09/07 01:57:50;;;;;;;12.77;7.90;;;17.40;99.90;;;;;;5013458;28;20432;-79
2021/09/07 02:00:16;;;;;;;15.07;7.77;;;17.40;99.90;;;;;;5014056;28;20175;-80
2021/09/07 02:02:42;;;;;;;10.47;7.00;;;17.40;99.90;;;;;;5013540;28;20184;-79
2021/09/07 02:05:08;;;;;;;12.30;8.50;;;17.30;99.90;;;;;;5014273;28;21000;-79
2021/09/07 02:07:33;;;;;;;12.23;7.83;;;17.40;99.90;;;;;;5014572;28;20167;-79
2021/09/07 02:09:59;;;;;;;14.40;8.07;;;17.30;99.90;;;;;;5013912;28;20464;-79
2021/09/07 02:12:24;;;;;;;11.70;8.03;;;17.30;99.90;;;;;;5014368;28;20547;-79
2021/09/07 02:14:50;;;;;;;11.43;7.63;;;17.30;99.90;;;;;;5012664;28;20707;-79
2021/09/07 02:17:16;;;;;;;10.70;7.80;;;17.30;99.90;;;;;;4996184;28;20699;-79
2021/09/07 02:19:45;;;;;;;13.43;7.80;;;17.30;99.90;;;;;;5013618;28;20972;-79
2021/09/07 02:22:11;;;;;;;16.00;8.80;;;17.20;99.90;;;;;;5012090;28;20269;-81
2021/09/07 02:24:36;;;;;;;14.83;8.37;;;17.20;99.90;;;;;;5013872;28;20499;-80
2021/09/07 02:27:02;;;;;;;11.63;8.10;;;17.30;99.90;;;;;;5015748;28;20642;-80
2021/09/07 02:29:28;;;;;;;13.23;7.63;;;17.20;99.90;;;;;;5016981;28;20199;-79
2021/09/07 02:31:56;;;;;;;12.07;8.07;;;17.20;99.90;;;;;;5016933;28;20422;-79
2021/09/07 02:34:21;;;;;;;14.90;7.80;;;17.20;99.90;;;;;;4999577;28;20199;-79
2021/09/07 02:36:47;;;;;;;12.50;8.23;;;17.20;99.90;;;;;;5016595;28;20547;-79
2021/09/07 02:39:14;;;;;;;12.03;8.47;;;17.20;99.90;;;;;;5017041;28;20176;-80
2021/09/07 02:41:39;;;;;;;13.50;8.07;;;17.20;99.90;;;;;;5017141;28;20169;-79
2021/09/07 02:44:05;;;;;;;16.07;8.63;;;17.10;99.90;;;;;;5016534;28;20490;-80
2021/09/07 02:46:31;;;;;;;14.03;8.03;;;17.10;99.90;;;;;;5017854;28;20602;-80
2021/09/07 02:48:57;;;;;;;15.10;7.70;;;17.00;99.90;;;;;;5017201;28;20541;-79
2021/09/07 02:51:22;;;;;;;15.93;8.80;;;17.00;99.90;;;;;;5016810;28;20542;-80
2021/09/07 02:53:48;;;;;;;14.33;9.33;;;16.90;99.90;;;;;;5015650;28;20188;-80
2021/09/07 02:56:14;;;;;;;13.73;10.27;;;16.90;99.90;;;;;;5016832;28;20201;-79
2021/09/07 02:58:40;;;;;;;11.10;7.70;;;16.90;99.90;;;;;;5016514;28;20178;-79
2021/09/07 03:01:05;;;;;;;11.20;8.33;;;16.90;99.90;;;;;;5016266;28;20398;-80
2021/09/07 03:03:33;;;;;;;16.47;9.33;;;16.90;99.90;;;;;;5015001;28;20745;-80
2021/09/07 03:05:59;;;;;;;18.10;9.90;;;16.80;99.90;;;;;;5015342;28;20286;-79
2021/09/07 03:08:24;;;;;;;15.33;9.00;;;16.80;99.90;;;;;;5016441;28;20776;-80
2021/09/07 03:10:50;;;;;;;16.70;9.30;;;16.70;99.90;;;;;;5016875;28;20424;-80
2021/09/07 03:13:15;;;;;;;15.30;9.67;;;16.70;99.90;;;;;;5017672;28;20182;-80
2021/09/07 03:15:41;;;;;;;13.63;8.30;;;16.70;99.90;;;;;;5018237;28;20213;-79
2021/09/07 03:18:08;;;;;;;13.77;7.87;;;16.70;99.90;;;;;;5018330;28;20193;-80
2021/09/07 03:20:37;;;;;;;12.90;7.53;;;16.70;99.90;;;;;;5018239;28;20405;-80
2021/09/07 03:23:02;;;;;;;14.67;8.47;;;16.70;99.90;;;;;;5017649;28;20417;-81
2021/09/07 03:25:28;;;;;;;11.30;8.20;;;16.70;99.90;;;;;;5017188;28;20452;-79
2021/09/07 03:27:53;;;;;;;15.07;9.17;;;16.70;99.90;;;;;;5015282;28;20209;-80
2021/09/07 03:30:19;;;;;;;18.97;9.87;;;16.70;99.90;;;;;;5016335;28;20255;-79
2021/09/07 03:32:45;;;;;;;16.60;8.87;;;16.70;99.90;;;;;;5017012;28;20232;-80
2021/09/07 03:35:11;;;;;;;13.40;8.87;;;16.60;99.90;;;;;;5015660;28;20275;-80
2021/09/07 03:37:36;;;;;;;12.57;7.80;;;16.60;99.90;;;;;;5017386;28;20210;-80
2021/09/07 03:40:03;;;;;;;11.00;7.93;;;16.70;99.90;;;;;;5017681;28;20405;-79
2021/09/07 03:42:28;;;;;;;14.23;9.10;;;16.60;99.90;;;;;;5017877;28;20305;-80
2021/09/07 03:44:54;;;;;;;13.27;7.47;;;16.60;99.90;;;;;;5015557;28;20464;-79
2021/09/07 03:47:20;;;;;;;14.33;7.47;;;16.60;99.90;;;;;;5015467;28;20405;-78
2021/09/07 03:49:45;;;;;;;15.43;8.67;;;16.60;99.90;;;;;;5014911;28;20181;-79
2021/09/07 03:52:11;;;;;;;15.30;9.33;;;16.50;99.90;;;;;;5016279;28;20182;-80
2021/09/07 03:54:36;;;;;;;13.37;9.30;;;16.50;99.90;;;;;;5015728;28;20233;-79
2021/09/07 03:57:02;;;;;;;13.33;7.80;;;16.60;99.90;;;;;;5016486;28;20293;-80
2021/09/07 03:59:28;;;;;;;14.97;9.07;;;16.50;99.90;;;;;;5016107;28;20170;-79
2021/09/07 04:01:53;;;;;;;13.33;9.07;;;16.40;99.90;;;;;;5015840;28;20258;-79
2021/09/07 04:04:21;;;;;;;13.80;8.47;;;16.50;99.90;;;;;;5014251;28;20524;-79
2021/09/07 04:06:46;;;;;;;13.77;8.97;;;16.30;99.90;;;;;;5014513;28;20618;-78
2021/09/07 04:09:12;;;;;;;16.40;9.40;;;16.30;99.90;;;;;;5016415;28;20413;-80
2021/09/07 04:11:37;;;;;;;15.80;9.17;;;16.30;99.90;;;;;;5016225;28;20186;-79
2021/09/07 04:14:03;;;;;;;13.23;8.50;;;16.30;99.90;;;;;;5016906;28;20174;-79
2021/09/07 04:16:29;;;;;;;23.83;11.53;;;16.30;99.90;;;;;;5015521;28;20287;-79
2021/09/07 04:18:54;;;;;;;16.13;10.43;;;16.30;99.90;;;;;;5016627;28;20193;-80
2021/09/07 04:21:20;;;;;;;17.63;8.57;;;16.20;99.90;;;;;;5015996;28;20205;-80
2021/09/07 04:23:45;;;;;;;19.30;9.60;;;16.30;99.90;;;;;;5015585;28;20253;-80
2021/09/07 04:26:14;;;;;;;15.67;9.13;;;16.30;99.90;;;;;;5015869;28;20225;-79
2021/09/07 04:28:39;;;;;;;13.90;9.40;;;16.40;99.90;;;;;;5015959;28;20177;-80
2021/09/07 04:31:05;;;;;;;20.23;11.43;;;16.40;99.90;;;;;;5016084;28;20421;-79
2021/09/07 04:33:30;;;;;;;12.37;9.50;;;16.40;99.90;;;;;;5016595;28;20178;-79
2021/09/07 04:35:56;;;;;;;14.50;8.80;;;16.30;99.90;;;;;;5014612;28;20202;-79
2021/09/07 04:38:21;;;;;;;19.93;9.33;;;16.30;99.90;;;;;;5016117;28;20189;-81
2021/09/07 04:40:47;;;;;;;16.03;9.57;;;16.30;99.90;;;;;;5017002;28;20643;-80
2021/09/07 04:43:13;;;;;;;15.40;9.97;;;16.30;99.90;;;;;;5016636;28;20178;-79
2021/09/07 04:45:38;;;;;;;17.07;8.93;;;16.40;99.90;;;;;;4999089;28;20225;-80
2021/09/07 04:48:04;;;;;;;12.33;8.80;;;16.40;99.90;;;;;;5013625;28;20189;-79
2021/09/07 04:50:29;;;;;;;20.73;10.80;;;16.30;99.90;;;;;;5015698;28;20205;-80
2021/09/07 04:52:55;;;;;;;15.90;9.80;;;16.40;99.90;;;;;;5014614;28;20537;-79
2021/09/07 04:55:20;;;;;;;13.23;8.43;;;16.40;99.90;;;;;;5012665;28;20218;-79
2021/09/07 04:57:46;;;;;;;14.83;9.60;;;16.50;99.90;;;;;;5015039;28;20217;-79
2021/09/07 05:00:12;;;;;;;21.37;11.37;;;16.40;99.90;;;;;;5016060;28;20179;-79
2021/09/07 05:02:38;;;;;;;14.10;9.73;;;16.40;99.90;;;;;;5015393;28;20377;-79
2021/09/07 05:05:08;;;;;;;17.90;11.10;;;16.40;99.90;;;;;;5013263;28;20424;-80
2021/09/07 05:07:33;;;;;;;12.93;9.00;;;16.50;99.90;;;;;;5013900;28;20266;-78
2021/09/07 05:09:59;;;;;;;17.17;9.90;;;16.50;99.90;;;;;;5020577;28;20445;-80
2021/09/07 05:12:26;;;;;;;22.60;11.30;;;16.50;99.90;;;;;;5015218;28;20182;-79
2021/09/07 05:14:52;;;;;;;15.70;10.13;;;16.60;99.90;;;;;;5014859;28;20189;-81
2021/09/07 05:17:17;;;;;;;19.83;11.10;;;16.70;99.90;;;;;;5017352;28;20449;-81
2021/09/07 05:19:43;;;;;;;18.87;11.27;;;16.90;99.90;;;;;;5015867;28;20649;-80
2021/09/07 05:22:09;;;;;;;17.57;10.27;;;16.90;99.90;;;;;;4999182;28;20198;-80
2021/09/07 05:24:34;;;;;;;16.30;10.00;;;17.00;99.90;;;;;;5016882;28;20255;-80
2021/09/07 05:27:00;;;;;;;13.13;9.20;;;17.00;99.90;;;;;;5016010;28;20250;-78
2021/09/07 05:29:25;;;;;;;19.77;10.90;;;17.00;99.90;;;;;;5014553;28;20178;-80
2021/09/07 05:31:51;;;;;;;17.67;10.03;;;17.00;99.90;;;;;;5015628;28;20648;-79
2021/09/07 05:34:17;;;;;;;18.70;10.00;;;16.90;99.90;;;;;;5026261;28;20206;-79
2021/09/07 05:36:42;;;;;;;17.17;10.20;;;16.90;99.90;;;;;;5014116;28;20598;-79
2021/09/07 05:39:08;;;;;;;18.17;10.30;;;16.90;99.90;;;;;;5032583;28;20414;-79
2021/09/07 05:41:34;;;;;;;15.87;10.17;;;16.90;99.90;;;;;;5032112;28;20514;-79
2021/09/07 05:43:59;;;;;;;14.83;8.30;;;16.90;99.90;;;;;;5033446;28;20198;-78
2021/09/07 05:46:25;;;;;;;17.37;9.60;;;17.10;99.90;;;;;;5034461;28;20224;-80
2021/09/07 05:48:50;;;;;;;12.40;8.60;;;17.20;99.90;;;;;;5032909;28;20605;-79
2021/09/07 05:51:16;;;;;;;16.33;8.70;;;17.10;99.90;;;;;;5023503;28;20177;-79
2021/09/07 05:53:42;;;;;;;14.07;8.60;;;17.20;99.90;;;;;;5024135;28;20179;-80
2021/09/07 05:56:10;;;;;;;16.97;8.70;;;17.40;99.90;;;;;;5035897;28;20258;-78
2021/09/07 05:58:36;;;;;;;13.23;9.40;;;17.50;99.90;;;;;;5036069;28;20262;-78
2021/09/07 06:01:01;;;;;;;13.53;9.40;;;17.70;99.90;;;;;;5039370;28;20999;-80
2021/09/07 06:03:27;;;;;;;14.97;8.90;;;17.90;99.90;;;;;;5024934;28;20929;-78
2021/09/07 06:05:52;;;;;;;12.97;8.17;;;18.00;99.90;;;;;;5042724;28;20680;-79
2021/09/07 06:08:18;;;;;;;13.67;8.07;;;18.00;99.90;;;;;;5039931;28;20188;-78
2021/09/07 06:10:43;;;;;;;14.03;8.60;;;18.10;99.90;;;;;;5041290;28;20214;-80
2021/09/07 06:13:09;;;;;;;12.80;9.40;;;18.20;99.90;;;;;;5036111;28;20216;-78
2021/09/07 06:15:34;;;;;;;19.00;10.33;;;18.30;99.90;;;;;;5036631;28;20212;-77
2021/09/07 06:18:00;;;;;;;14.77;8.80;;;18.10;99.90;;;;;;5035971;28;20177;-77
2021/09/07 06:20:26;;;;;;;13.70;7.50;;;18.10;99.90;;;;;;5014696;28;20192;-79
2021/09/07 06:22:52;;;;;;;12.97;7.63;;;18.30;99.90;;;;;;5033393;28;20432;-78
2021/09/07 06:25:18;;;;;;;15.90;8.97;;;18.60;99.90;;;;;;5035073;28;20259;-77
2021/09/07 06:27:43;;;;;;;14.97;9.47;;;18.90;99.90;;;;;;5033533;28;20428;-77
2021/09/07 06:30:10;;;;;;;14.30;8.10;;;19.00;99.90;;;;;;5035002;28;21014;-77
2021/09/07 06:32:35;;;;;;;13.47;8.43;;;19.00;99.90;;;;;;5035447;28;20652;-77
2021/09/07 06:35:01;;;;;;;14.13;8.90;;;18.80;99.90;;;;;;5033675;28;20530;-77
2021/09/07 06:37:27;;;;;;;10.83;7.10;;;18.90;99.90;;;;;;5035712;28;20212;-78
2021/09/07 06:39:53;;;;;;;13.33;8.33;;;19.10;99.90;;;;;;5035356;28;20713;-77
2021/09/07 06:42:19;;;;;;;16.67;8.43;;;19.30;99.90;;;;;;5035084;28;20420;-77
2021/09/07 06:44:44;;;;;;;13.17;7.63;;;19.10;99.90;;;;;;5021827;28;20186;-77
2021/09/07 06:47:10;;;;;;;14.63;7.70;;;19.10;99.90;;;;;;5016734;28;20185;-77
2021/09/07 06:49:35;;;;;;;9.77;7.00;;;19.20;99.90;;;;;;5014570;28;20174;-77
2021/09/07 06:52:01;;;;;;;14.07;7.97;;;19.40;99.90;;;;;;5016246;28;20654;-77
2021/09/07 06:54:27;;;;;;;11.30;7.57;;;19.30;99.90;;;;;;5029767;28;20575;-77
2021/09/07 06:56:52;;;;;;;11.20;7.63;;;19.10;99.90;;;;;;5037848;28;20314;-78
2021/09/07 06:59:18;;;;;;;14.67;8.60;;;19.00;99.90;;;;;;5039639;28;20235;-77
2021/09/07 07:01:43;;;;;;;11.83;7.93;;;18.90;99.90;;;;;;5041945;28;20169;-78
2021/09/07 07:04:09;;;;;;;12.17;7.17;;;19.10;99.90;;;;;;5036985;28;20205;-78
2021/09/07 07:06:35;;;;;;;11.10;8.57;;;18.80;99.90;;;;;;5028997;28;20185;-77
2021/09/07 07:09:00;;;;;;;12.90;7.73;;;18.90;99.90;;;;;;5033367;28;20185;-77
2021/09/07 07:11:26;;;;;;;14.33;8.60;;;18.80;99.90;;;;;;5033599;28;20185;-79
2021/09/07 07:13:51;;;;;;;11.37;7.73;;;18.90;99.90;;;;;;5034449;28;20260;-77
2021/09/07 07:16:17;;;;;;;11.23;7.20;;;18.70;99.90;;;;;;5034534;28;20208;-79
2021/09/07 07:18:42;;;;;;;14.33;9.13;;;18.70;99.90;;;;;;5034926;28;20656;-78
2021/09/07 07:21:08;;;;;;;14.27;8.93;;;18.50;99.90;;;;;;5033933;28;20193;-77
2021/09/07 07:23:33;;;;;;;15.33;8.33;;;18.50;99.90;;;;;;5028868;28;20514;-78
2021/09/07 07:25:59;;;;;;;12.33;8.43;;;18.60;99.90;;;;;;5034422;28;20243;-77
2021/09/07 07:28:25;;;;;;;11.83;7.43;;;18.70;99.90;;;;;;5020348;28;20178;-78
2021/09/07 07:30:50;;;;;;;11.93;7.60;;;19.10;99.90;;;;;;5034416;28;20244;-77
2021/09/07 07:33:16;;;;;;;9.33;7.60;;;19.10;99.90;;;;;;5016257;28;20272;-77
2021/09/07 07:35:42;;;;;;;14.43;7.67;;;19.20;99.90;;;;;;5022983;28;20208;-77
2021/09/07 07:38:08;;;;;;;11.37;7.37;;;19.30;99.90;;;;;;5032388;28;20181;-77
2021/09/07 07:40:34;;;;;;;9.47;6.10;;;19.30;99.90;;;;;;5033934;28;20412;-77
2021/09/07 07:43:00;;;;;;;10.50;6.43;;;19.30;99.90;;;;;;5016630;28;20420;-78
2021/09/07 07:45:29;;;;;;;8.27;6.47;;;19.10;99.90;;;;;;5033273;28;20443;-78
2021/09/07 07:47:54;;;;;;;12.80;7.10;;;19.10;99.90;;;;;;5034469;28;20462;-78
2021/09/07 07:50:20;;;;;;;14.10;8.70;;;18.90;99.90;;;;;;5032902;28;20424;-77
2021/09/07 07:52:45;;;;;;;10.37;7.53;;;18.70;99.90;;;;;;5033673;28;20177;-77
2021/09/07 07:55:11;;;;;;;12.83;7.20;;;18.70;99.90;;;;;;5032028;28;20707;-76
2021/09/07 07:57:37;;;;;;;11.53;6.97;;;18.90;99.90;;;;;;5033694;28;20676;-77
2021/09/07 08:00:04;;;;;;;11.60;8.40;;;19.10;99.90;;;;;;5033327;28;20208;-77
2021/09/07 08:02:29;;;;;;;11.63;7.60;;;18.90;99.90;;;;;;5033872;28;20252;-77
2021/09/07 08:04:55;;;;;;;15.77;7.60;;;19.00;99.90;;;;;;5031957;28;20471;-78
2021/09/07 08:07:20;;;;;;;17.27;8.13;;;19.00;99.90;;;;;;5034045;28;20185;-78
2021/09/07 08:09:46;;;;;;;10.90;7.00;;;19.00;99.90;;;;;;5030088;28;20177;-77
2021/09/07 08:12:16;;;;;;;18.93;8.10;;;19.10;99.90;;;;;;5033287;28;20177;-77
2021/09/07 08:14:42;;;;;;;12.33;7.33;;;19.10;99.90;;;;;;5032725;28;20204;-76
2021/09/07 08:17:07;;;;;;;9.53;7.20;;;19.00;99.90;;;;;;5026517;28;20975;-76
2021/09/07 08:19:33;;;;;;;14.13;8.20;;;19.20;99.90;;;;;;5026117;28;20583;-77
2021/09/07 08:21:58;;;;;;;15.40;7.70;;;19.40;99.90;;;;;;5030409;28;20189;-77
2021/09/07 08:24:24;;;;;;;13.90;8.17;;;19.50;99.90;;;;;;5030361;28;20253;-76
2021/09/07 08:26:50;;;;;;;13.37;8.00;;;19.60;99.90;;;;;;5031947;28;20196;-77
2021/09/07 08:29:15;;;;;;;12.00;7.80;;;19.70;99.90;;;;;;5030986;28;20181;-77
2021/09/07 08:31:41;;;;;;;15.00;8.73;;;19.70;99.90;;;;;;5030741;28;20182;-77
2021/09/07 08:34:06;;;;;;;14.13;8.90;;;19.70;99.90;;;;;;5029393;28;20213;-77
2021/09/07 08:36:32;;;;;;;16.20;7.20;;;19.80;99.90;;;;;;5029472;28;20211;-77
2021/09/07 08:38:58;;;;;;;14.07;7.57;;;19.80;99.90;;;;;;5030835;28;20186;-79
2021/09/07 08:41:23;;;;;;;20.07;8.30;;;20.00;99.90;;;;;;5029347;28;20261;-77
2021/09/07 08:43:55;;;;;;;14.47;9.07;;;20.20;99.90;;;;;;5067184;28;20531;-76
2021/09/07 08:46:21;;;;;;;17.03;10.20;;;20.20;99.90;;;;;;5050691;28;20868;-76
2021/09/07 08:48:48;;;;;;;16.17;8.17;;;20.20;99.90;;;;;;5047033;28;20194;-76
2021/09/07 08:51:18;;;;;;;8.93;6.20;;;20.20;99.90;;;;;;5046601;28;20297;-76
2021/09/07 08:53:44;;;;;;;14.60;7.90;;;20.30;99.90;;;;;;5047229;28;20949;-76
2021/09/07 08:56:11;;;;;;;12.50;8.60;;;20.40;99.90;;;;;;5048374;28;20444;-78
2021/09/07 08:58:37;;;;;;;13.20;7.77;;;20.40;99.90;;;;;;5047868;28;20409;-77
2021/09/07 09:01:14;;;;;;;13.97;8.50;;;20.40;99.90;;;;;;5047211;28;20453;-77
2021/09/07 09:03:44;;;;;;;15.57;7.73;;;20.40;99.90;;;;;;5045616;28;20472;-78
2021/09/07 09:06:11;;;;;;;12.40;8.03;;;20.40;99.90;;;;;;5048374;28;20548;-79
2021/09/07 09:08:37;;;;;;;18.43;7.90;;;20.20;99.90;;;;;;5046797;28;20851;-79
2021/09/07 09:11:11;;;;;;;12.33;7.50;;;20.30;99.90;;;;;;5047803;28;20501;-78
2021/09/07 09:13:41;;;;;;;15.40;7.90;;;20.40;99.90;;;;;;5045177;28;20438;-78
2021/09/07 09:16:07;;;;;;;12.37;6.60;;;20.40;99.90;;;;;;5048164;28;20857;-78
2021/09/07 09:18:41;;;;;;;12.63;8.37;;;20.40;99.90;;;;;;5046502;28;20617;-78
2021/09/07 09:21:28;;;;;;;10.70;7.03;;;20.40;99.90;;;;;;5047960;28;20178;-78
2021/09/07 09:24:12;;;;;;;12.40;8.17;;;20.50;99.90;;;;;;5045878;28;20418;-77
2021/09/07 09:26:57;;;;;;;11.47;7.30;;;20.60;99.90;;;;;;5046509;28;20411;-77
2021/09/07 09:29:26;;;;;;;11.00;8.27;;;20.70;99.90;;;;;;5046185;28;20426;-78
2021/09/07 09:31:54;;;;;;;15.30;8.60;;;20.50;99.90;;;;;;5045438;28;20464;-78
2021/09/07 09:34:20;;;;;;;11.50;7.90;;;20.40;99.90;;;;;;5045781;28;20414;-77
2021/09/07 09:37:09;;;;;;;8.60;6.20;;;20.20;99.90;;;;;;5047032;28;20833;-77
2021/09/07 09:39:40;;;;;;;10.97;8.47;;;20.40;99.90;;;;;;5046285;28;20176;-79
2021/09/07 09:42:07;;;;;;;10.77;7.53;;;20.60;99.90;;;;;;5077833;28;20553;-79
2021/09/07 09:44:33;;;;;;;9.17;6.50;;;20.70;99.90;;;;;;5046446;28;20434;-79
2021/09/07 09:46:58;;;;;;;11.43;7.90;;;20.70;99.90;;;;;;5046468;28;20415;-77
2021/09/07 09:49:28;;;;;;;12.40;7.83;;;20.80;99.90;;;;;;5045794;28;20263;-78
2021/09/07 09:52:03;;;;;;;10.70;7.93;;;20.80;99.90;;;;;;5046123;28;20188;-77
2021/09/07 09:54:30;;;;;;;11.43;7.20;;;20.70;99.90;;;;;;5035826;28;20457;-77
2021/09/07 09:56:58;;;;;;;10.37;7.13;;;20.50;99.90;;;;;;5036130;28;20427;-78
2021/09/07 09:59:26;;;;;;;11.03;6.80;;;20.50;99.90;;;;;;5038101;28;20472;-81
2021/09/07 10:01:53;;;;;;;9.00;6.50;;;20.60;99.90;;;;;;5039938;28;20462;-82
2021/09/07 10:04:20;;;;;;;12.17;8.10;;;20.70;99.90;;;;;;5037077;28;20451;-78
2021/09/07 10:06:51;;;;;;;17.20;7.80;;;20.80;99.90;;;;;;5067885;28;20432;-79
2021/09/07 10:09:18;;;;;;;11.40;7.70;;;20.80;99.90;;;;;;5034761;28;20423;-79
2021/09/07 10:11:49;;;;;;;12.50;7.63;;;20.40;99.90;;;;;;5036859;28;20522;-80
2021/09/07 10:14:18;;;;;;;9.10;6.50;;;20.30;99.90;;;;;;5038438;28;20506;-79
2021/09/07 10:17:06;;;;;;;11.47;7.63;;;20.20;99.90;;;;;;5036988;28;20434;-79
2021/09/07 10:19:45;;;;;;;12.27;7.40;;;20.20;99.90;;;;;;5036929;28;20465;-79
2021/09/07 10:24:58;;;;;;;11.27;7.20;;;20.70;99.90;;;;;;5031269;28;20830;-78
2021/09/07 10:28:03;;;;;;;13.80;9.07;;;20.80;99.90;;;;;;5041726;28;20424;-77
2021/09/07 10:31:01;;;;;;;12.20;7.60;;;20.90;99.90;;;;;;5039502;28;20676;-79
2021/09/07 10:33:37;;;;;;;13.23;8.07;;;21.00;99.90;;;;;;5037543;28;20412;-79
2021/09/07 10:36:09;;;;;;;9.70;7.30;;;20.90;99.90;;;;;;5037488;28;20442;-79
2021/09/07 10:38:45;;;;;;;10.93;7.03;;;21.10;99.90;;;;;;5069448;28;20938;-79
2021/09/07 10:41:33;;;;;;;10.57;6.80;;;21.10;99.90;;;;;;5039107;28;20775;-79
2021/09/07 10:44:02;;;;;;;11.47;6.90;;;21.20;99.90;;;;;;5039367;28;20443;-79
2021/09/07 10:46:46;;;;;;;13.00;7.23;;;21.20;99.90;;;;;;5037877;28;20396;-78
2021/09/07 10:49:37;;;;;;;10.70;6.00;;;21.20;99.90;;;;;;5033668;28;20404;-77
2021/09/07 10:52:12;;;;;;;14.53;7.27;;;21.30;99.90;;;;;;5033847;28;20430;-77
2021/09/07 10:54:53;;;;;;;10.70;7.03;;;21.40;99.90;;;;;;5033763;28;20700;-77
2021/09/07 10:57:46;;;;;;;12.30;7.70;;;21.30;99.90;;;;;;5034140;28;20412;-77
2021/09/07 11:00:20;;;;;;;16.97;6.50;;;21.30;99.90;;;;;;5066556;28;20424;-78
2021/09/07 11:02:55;;;;;;;9.70;6.80;;;21.30;99.90;;;;;;5033976;28;20450;-77
2021/09/07 11:05:23;;;;;;;10.80;6.87;;;21.40;99.90;;;;;;5033323;28;20498;-78
2021/09/07 11:08:10;;;;;;;9.10;6.50;;;21.60;99.90;;;;;;5065297;28;20446;-77
2021/09/07 11:10:54;;;;;;;10.47;6.60;;;21.60;99.90;;;;;;5033457;28;20424;-77
2021/09/07 11:13:27;;;;;;;12.10;7.10;;;21.70;99.90;;;;;;5033663;28;20912;-77
2021/09/07 11:16:01;;;;;;;11.27;6.97;;;21.60;99.90;;;;;;5041855;28;20855;-78
2021/09/07 11:18:29;;;;;;;7.93;5.60;;;21.70;99.90;;;;;;5030796;28;20424;-77
2021/09/07 11:20:58;;;;;;;12.93;6.90;;;21.70;99.90;;;;;;5030196;28;20422;-77
2021/09/07 11:23:29;;;;;;;9.53;6.27;;;21.70;99.90;;;;;;5030765;28;20521;-77
2021/09/07 11:26:04;;;;;;;8.10;5.13;;;21.70;99.90;;;;;;5031200;28;20439;-77
2021/09/07 11:28:35;;;;;;;7.63;6.07;;;21.90;99.90;;;;;;5031553;28;20442;-77
2021/09/07 11:31:01;;;;;;;6.97;5.07;;;21.90;99.90;;;;;;5031231;28;20428;-78
2021/09/07 11:33:36;;;;;;;9.00;5.17;;;22.00;99.90;;;;;;5032567;28;20896;-80
2021/09/07 11:36:06;;;;;;;9.13;5.80;;;22.00;99.90;;;;;;5032794;28;20490;-79
2021/09/07 11:38:39;;;;;;;11.00;5.57;;;22.00;99.90;;;;;;5032933;28;21001;-79
2021/09/07 11:41:09;;;;;;;8.37;5.17;;;22.10;99.90;;;;;;5034368;28;20935;-78
2021/09/07 11:43:44;;;;;;;8.50;5.50;;;22.10;99.90;;;;;;5033409;28;20456;-78
2021/09/07 11:46:19;;;;;;;9.27;5.47;;;22.20;99.90;;;;;;5033773;28;20443;-79
2021/09/07 11:48:47;;;;;;;7.37;5.37;;;22.30;99.90;;;;;;5033986;28;20439;-79
2021/09/07 11:51:34;;;;;;;7.90;5.67;;;22.10;99.90;;;;;;5034761;28;20420;-79
2021/09/07 11:54:03;;;;;;;5.77;4.47;;;22.10;99.90;;;;;;5037095;28;20420;-78
2021/09/07 11:56:31;;;;;;;9.10;4.90;;;22.10;99.90;;;;;;5035015;28;20513;-79
2021/09/07 11:59:09;;;;;;;7.77;5.50;;;22.10;99.90;;;;;;5033702;28;20460;-79
2021/09/07 12:01:49;;;;;;;7.23;5.40;;;22.10;99.90;;;;;;5033563;28;20420;-78
2021/09/07 12:04:18;;;;;;;7.33;5.00;;;22.00;99.90;;;;;;5031745;28;20428;-78
2021/09/07 12:06:51;;;;;;;9.07;5.90;;;22.00;99.90;;;;;;5031857;28;20443;-79
2021/09/07 12:09:26;;;;;;;9.10;5.63;;;22.00;99.90;;;;;;5032716;28;20518;-78
2021/09/07 12:12:03;;;;;;;7.50;5.43;;;22.20;99.90;;;;;;5031413;28;20419;-79
2021/09/07 12:14:47;;;;;;;6.07;4.70;;;22.30;99.90;;;;;;5032794;28;20509;-79
2021/09/07 12:17:18;;;;;;;7.00;5.63;;;22.40;99.90;;;;;;5031087;28;20424;-79
2021/09/07 12:19:47;;;;;;;8.83;5.57;;;22.50;99.90;;;;;;5032235;28;20917;-81
2021/09/07 12:22:21;;;;;;;8.43;5.13;;;22.40;99.90;;;;;;5033103;28;20862;-80
2021/09/07 12:25:11;;;;;;;7.70;5.20;;;22.50;99.90;;;;;;5033514;28;20517;-79
2021/09/07 12:27:46;;;;;;;8.07;5.90;;;22.60;99.90;;;;;;5032494;28;20416;-80
2021/09/07 12:30:23;;;;;;;6.57;5.00;;;22.50;99.90;;;;;;5032034;28;20427;-80
2021/09/07 12:32:55;;;;;;;8.47;5.80;;;22.30;99.90;;;;;;5026926;28;20446;-79
2021/09/07 12:35:35;;;;;;;8.60;5.47;;;22.10;99.90;;;;;;5034051;28;20481;-79
2021/09/07 12:38:06;;;;;;;10.60;5.10;;;21.70;99.90;;;;;;5034860;28;20784;-80
2021/09/07 12:40:36;;;;;;;9.70;6.80;;;21.60;99.90;;;;;;5036915;28;20408;-80
2021/09/07 12:43:06;;;;;;;6.50;5.40;;;21.60;99.90;;;;;;5036823;28;20547;-79
2021/09/07 12:45:32;;;;;;;6.33;5.63;;;21.70;99.90;;;;;;5034116;28;20822;-79